Time;durP1;ratioP1;P1;durP2;ratioP2;P2;SDS_P1;SDS_P2;PMS_P1;PMS_P2;Temp;Humidity;BMP_temperature;BMP_pressure;BME280_temperature;BME280_humidity;BME280_pressure;Samples;Min_cycle;Max_cycle;Signal;HPM_P1;HPM_P2
2022/03/02 00:00:10;;;;;;;23.40;11.90;;;;;;;-0.81;53.46;101404.00;5112073;28;20040;-76
2022/03/02 00:02:36;;;;;;;21.42;11.20;;;;;;;-0.88;53.37;101395.38;5100886;28;20057;-76
2022/03/02 00:05:02;;;;;;;29.38;12.38;;;;;;;-0.83;53.86;101411.06;5112703;28;20023;-76
2022/03/02 00:07:28;;;;;;;21.08;10.90;;;;;;;-0.82;53.75;101410.16;5112709;28;20034;-75
2022/03/02 00:09:53;;;;;;;20.48;10.05;;;;;;;-0.84;53.88;101411.97;5097669;28;20024;-71
2022/03/02 00:12:19;;;;;;;22.60;11.35;;;;;;;-0.95;54.16;101390.28;5112509;28;20379;-76
2022/03/02 00:14:45;;;;;;;25.65;11.38;;;;;;;-0.96;54.04;101392.09;5112437;28;20543;-77
2022/03/02 00:17:10;;;;;;;24.50;11.25;;;;;;;-0.94;54.02;101399.91;5112070;28;20089;-76
2022/03/02 00:19:37;;;;;;;22.63;11.35;;;;;;;-0.94;54.10;101403.41;5112281;28;20024;-77
2022/03/02 00:22:04;;;;;;;24.02;11.05;;;;;;;-0.96;54.23;101397.34;5111752;28;20048;-76
2022/03/02 00:24:29;;;;;;;25.08;11.20;;;;;;;-1.02;54.26;101389.59;5109606;28;20031;-76
2022/03/02 00:26:55;;;;;;;22.33;10.68;;;;;;;-1.01;54.39;101385.16;5102923;28;20024;-76
2022/03/02 00:29:20;;;;;;;22.73;11.18;;;;;;;-1.10;54.60;101365.19;5097540;28;20032;-76
2022/03/02 00:31:46;;;;;;;27.60;11.38;;;;;;;-1.02;54.70;101391.34;5102643;28;20038;-76
2022/03/02 00:34:12;;;;;;;21.13;10.77;;;;;;;-1.11;54.79;101365.22;5111840;28;20027;-76
2022/03/02 00:36:38;;;;;;;28.58;11.93;;;;;;;-1.16;54.67;101357.44;5102857;28;20216;-75
2022/03/02 00:39:04;;;;;;;23.05;10.65;;;;;;;-1.08;54.92;101384.47;5105542;28;20450;-76
2022/03/02 00:41:29;;;;;;;21.98;11.27;;;;;;;-1.21;55.48;101354.06;5111659;28;20026;-76
2022/03/02 00:43:55;;;;;;;20.98;11.23;;;;;;;-1.15;55.45;101363.59;5110648;28;20036;-71
2022/03/02 00:46:23;;;;;;;24.33;12.10;;;;;;;-1.12;55.93;101360.88;5110523;28;20436;-71
2022/03/02 00:48:49;;;;;;;21.02;12.13;;;;;;;-1.09;56.24;101361.69;5110305;28;20020;-71
2022/03/02 00:51:15;;;;;;;24.92;13.10;;;;;;;-1.10;55.98;101359.09;5110265;28;20506;-71
2022/03/02 00:53:40;;;;;;;22.45;12.57;;;;;;;-1.11;56.18;101354.72;5110266;28;20031;-71
2022/03/02 00:56:06;;;;;;;23.15;11.52;;;;;;;-1.12;55.79;101353.88;5110155;28;20032;-72
2022/03/02 00:58:31;;;;;;;22.80;11.20;;;;;;;-1.11;56.22;101360.84;5110619;28;20016;-72
2022/03/02 01:00:57;;;;;;;21.40;10.05;;;;;;;-1.23;56.62;101340.06;5110137;28;20023;-72
2022/03/02 01:03:22;;;;;;;19.98;11.25;;;;;;;-1.17;56.81;101354.84;5110026;28;20050;-72
2022/03/02 01:05:48;;;;;;;20.17;11.05;;;;;;;-1.21;57.03;101351.44;5098072;28;20039;-72
2022/03/02 01:08:13;;;;;;;22.02;10.40;;;;;;;-1.30;57.03;101340.25;5097981;28;20035;-72
2022/03/02 01:10:39;;;;;;;20.85;10.05;;;;;;;-1.29;56.95;101345.47;5098138;28;20046;-72
2022/03/02 01:13:04;;;;;;;23.85;11.93;;;;;;;-1.31;56.85;101338.53;5109725;28;20368;-73
2022/03/02 01:15:30;;;;;;;27.30;11.60;;;;;;;-1.28;56.98;101341.97;5109837;27;20466;-71
2022/03/02 01:17:55;;;;;;;24.40;13.02;;;;;;;-1.36;57.32;101322.00;5109547;28;20506;-71
2022/03/02 01:20:21;;;;;;;29.27;12.68;;;;;;;-1.29;57.16;101323.59;5109460;28;20032;-72
2022/03/02 01:22:46;;;;;;;24.08;12.25;;;;;;;-1.36;57.71;101306.22;5109334;28;20126;-71
2022/03/02 01:25:13;;;;;;;25.90;11.90;;;;;;;-1.25;57.66;101317.34;5109859;28;20114;-72
2022/03/02 01:27:39;;;;;;;21.67;12.43;;;;;;;-1.19;57.59;101328.56;5100058;28;20034;-72
2022/03/02 01:30:06;;;;;;;25.00;11.32;;;;;;;-1.17;58.32;101323.25;5092628;28;20036;-71
2022/03/02 01:32:32;;;;;;;23.15;11.13;;;;;;;-1.21;58.49;101316.34;5109673;28;20034;-71
2022/03/02 01:34:58;;;;;;;23.20;11.25;;;;;;;-1.08;58.57;101328.31;5109577;28;20023;-71
2022/03/02 01:37:23;;;;;;;25.70;12.85;;;;;;;-1.10;58.84;101314.34;5109419;28;20596;-71
2022/03/02 01:39:49;;;;;;;30.38;13.95;;;;;;;-1.02;58.85;101318.50;5108972;28;20055;-71
2022/03/02 01:42:14;;;;;;;26.70;12.95;;;;;;;-1.04;58.92;101308.91;5109203;28;20038;-72
2022/03/02 01:44:40;;;;;;;25.08;12.02;;;;;;;-0.96;58.70;101315.72;5109318;28;20040;-72
2022/03/02 01:47:07;;;;;;;27.52;12.98;;;;;;;-0.91;58.61;101319.09;5109289;28;20020;-72
2022/03/02 01:49:33;;;;;;;29.92;13.45;;;;;;;-0.88;58.46;101311.13;5109457;27;20027;-72
2022/03/02 01:51:59;;;;;;;28.17;13.68;;;;;;;-0.94;58.51;101294.59;5109258;28;20059;-72
2022/03/02 01:54:24;;;;;;;28.65;11.93;;;;;;;-0.88;58.33;101297.09;5108949;28;20065;-71
2022/03/02 01:56:51;;;;;;;26.83;12.43;;;;;;;-0.87;58.13;101296.19;5108957;28;20084;-70
2022/03/02 01:59:16;;;;;;;33.97;15.27;;;;;;;-0.84;58.27;101307.50;5108713;28;20035;-71
2022/03/02 02:01:42;;;;;;;26.13;12.13;;;;;;;-0.90;58.06;101288.38;5108947;28;20051;-71
2022/03/02 02:04:09;;;;;;;29.42;13.00;;;;;;;-0.85;57.84;101295.25;5108828;28;20020;-71
2022/03/02 02:06:34;;;;;;;28.33;12.68;;;;;;;-0.82;58.06;101289.03;5108832;28;20030;-71
2022/03/02 02:09:02;;;;;;;30.15;13.90;;;;;;;-0.90;57.80;101283.13;5109325;28;20031;-70
2022/03/02 02:11:30;;;;;;;30.98;12.13;;;;;;;-0.85;57.74;101295.25;5101963;28;20043;-71
2022/03/02 02:13:56;;;;;;;25.70;11.80;;;;;;;-0.85;57.81;101299.63;5109134;28;20031;-71
2022/03/02 02:16:22;;;;;;;21.42;11.85;;;;;;;-0.84;57.58;101302.22;5099106;28;20046;-71
2022/03/02 02:18:50;;;;;;;23.27;11.60;;;;;;;-1.01;57.74;101271.97;5108689;28;20030;-71
2022/03/02 02:21:16;;;;;;;23.75;11.68;;;;;;;-0.91;57.82;101284.88;5108637;28;20115;-70
2022/03/02 02:23:42;;;;;;;27.48;11.77;;;;;;;-0.93;57.96;101284.03;5106207;28;20035;-70
2022/03/02 02:26:08;;;;;;;30.23;11.95;;;;;;;-0.93;57.92;101286.66;5093839;28;20030;-71
2022/03/02 02:28:34;;;;;;;29.50;11.90;;;;;;;-0.95;57.83;101285.00;5108805;28;20046;-72
2022/03/02 02:31:02;;;;;;;23.77;11.95;;;;;;;-0.96;58.21;101291.16;5108857;28;20032;-72
2022/03/02 02:33:29;;;;;;;22.48;11.93;;;;;;;-1.04;58.24;101266.78;5099044;28;20028;-71
2022/03/02 02:35:55;;;;;;;24.88;11.18;;;;;;;-1.08;58.07;101273.91;5101652;28;20031;-72
2022/03/02 02:38:21;;;;;;;23.70;11.02;;;;;;;-1.04;57.90;101277.31;5108584;28;20127;-72
2022/03/02 02:40:51;;;;;;;24.17;11.10;;;;;;;-1.06;57.88;101279.97;5099499;28;20024;-72
2022/03/02 02:43:20;;;;;;;26.70;11.10;;;;;;;-1.07;58.16;101282.66;5105005;28;20035;-72
2022/03/02 02:45:45;;;;;;;21.02;11.38;;;;;;;-1.11;58.29;101275.75;5102288;28;20478;-72
2022/03/02 02:48:11;;;;;;;23.00;11.20;;;;;;;-1.17;58.45;101268.88;5099351;28;20024;-71
2022/03/02 02:50:37;;;;;;;24.67;11.02;;;;;;;-1.23;58.61;101255.88;5100903;28;20093;-71
2022/03/02 02:53:06;;;;;;;22.40;11.00;;;;;;;-1.17;58.33;101276.78;5113370;28;20059;-76
2022/03/02 02:55:34;;;;;;;24.17;12.15;;;;;;;-1.24;58.74;101269.06;5101591;28;20027;-77
2022/03/02 02:58:01;;;;;;;24.02;11.65;;;;;;;-1.31;58.85;101260.47;5103924;28;20023;-77
2022/03/02 03:00:29;;;;;;;21.33;10.18;;;;;;;-1.27;58.79;101269.13;5112599;28;20038;-77
2022/03/02 03:02:56;;;;;;;22.42;10.98;;;;;;;-1.41;58.64;101253.72;5113405;27;20110;-77
2022/03/02 03:05:25;;;;;;;25.83;12.13;;;;;;;-1.32;58.69;101265.78;5111855;28;20098;-77
2022/03/02 03:07:51;;;;;;;27.65;11.77;;;;;;;-1.40;59.24;101259.81;5112739;28;20027;-77
2022/03/02 03:10:17;;;;;;;22.65;11.43;;;;;;;-1.43;59.17;101249.38;5112889;28;20055;-76
2022/03/02 03:12:44;;;;;;;20.98;10.85;;;;;;;-1.41;59.27;101266.00;5113163;28;20082;-77
2022/03/02 03:15:12;;;;;;;25.02;11.20;;;;;;;-1.55;59.27;101247.91;5112783;28;20110;-77
2022/03/02 03:17:38;;;;;;;22.27;11.13;;;;;;;-1.49;59.26;101265.31;5111665;28;20534;-78
2022/03/02 03:20:06;;;;;;;26.63;10.73;;;;;;;-1.49;59.47;101268.78;5111543;28;20383;-77
2022/03/02 03:22:31;;;;;;;23.20;10.88;;;;;;;-1.52;59.49;101263.59;5103824;28;20456;-78
2022/03/02 03:24:57;;;;;;;20.38;10.32;;;;;;;-1.60;59.56;101255.03;5100882;28;20062;-77
2022/03/02 03:27:22;;;;;;;24.20;10.80;;;;;;;-1.65;59.45;101250.81;5112763;28;20016;-77
2022/03/02 03:29:48;;;;;;;24.73;11.27;;;;;;;-1.66;59.87;101249.94;5112760;28;20099;-77
2022/03/02 03:32:14;;;;;;;21.10;10.70;;;;;;;-1.62;60.19;101263.88;5112758;28;20055;-77
2022/03/02 03:34:40;;;;;;;21.25;10.98;;;;;;;-1.60;60.01;101262.06;5112494;28;20027;-77
2022/03/02 03:37:05;;;;;;;23.55;11.65;;;;;;;-1.75;60.34;101236.97;5112659;28;20072;-77
2022/03/02 03:39:30;;;;;;;27.27;11.98;;;;;;;-1.75;60.28;101239.63;5112749;28;20489;-77
2022/03/02 03:41:56;;;;;;;29.52;11.98;;;;;;;-1.68;60.07;101254.34;5112363;28;20027;-76
2022/03/02 03:44:22;;;;;;;21.77;11.25;;;;;;;-1.68;60.39;101256.97;5112385;28;20445;-77
2022/03/02 03:46:48;;;;;;;24.23;9.60;;;;;;;-1.70;60.25;101248.28;5112581;28;20085;-77
2022/03/02 03:49:13;;;;;;;20.70;10.05;;;;;;;-1.74;60.37;101245.75;5112263;28;20049;-77
2022/03/02 03:51:39;;;;;;;24.10;9.77;;;;;;;-1.70;60.56;101261.41;5112270;28;20028;-77
2022/03/02 03:54:05;;;;;;;21.88;10.55;;;;;;;-1.74;60.29;101251.84;5112238;28;20027;-77
2022/03/02 03:56:31;;;;;;;19.67;9.98;;;;;;;-1.76;60.55;101247.53;5112395;28;20019;-78
2022/03/02 03:58:59;;;;;;;21.45;9.82;;;;;;;-1.84;60.28;101239.81;5112119;28;20031;-77
2022/03/02 04:01:25;;;;;;;22.02;9.57;;;;;;;-1.83;60.48;101243.31;5102453;28;20035;-78
2022/03/02 04:03:50;;;;;;;21.48;9.25;;;;;;;-1.84;60.98;101249.50;5112158;28;20427;-77
2022/03/02 04:06:16;;;;;;;24.50;9.95;;;;;;;-1.86;60.63;101249.53;5111962;28;20102;-76
2022/03/02 04:08:42;;;;;;;19.48;8.65;;;;;;;-1.88;61.05;101253.06;5111886;28;20031;-77
2022/03/02 04:11:07;;;;;;;17.73;9.18;;;;;;;-1.90;61.58;101254.88;5111765;28;20552;-77
2022/03/02 04:13:33;;;;;;;21.83;8.95;;;;;;;-1.96;61.25;101250.63;5102836;28;20681;-77
2022/03/02 04:15:58;;;;;;;20.20;9.50;;;;;;;-1.97;61.65;101250.66;5112214;28;20433;-77
2022/03/02 04:18:24;;;;;;;19.25;9.68;;;;;;;-2.00;61.74;101248.94;5111505;28;20031;-72
2022/03/02 04:20:50;;;;;;;19.20;9.27;;;;;;;-2.01;62.33;101251.59;5111212;28;20111;-72
2022/03/02 04:23:16;;;;;;;19.75;9.70;;;;;;;-2.06;62.43;101257.00;5110777;28;20077;-72
2022/03/02 04:25:41;;;;;;;18.90;8.65;;;;;;;-2.18;62.57;101235.34;5110920;28;20035;-72
2022/03/02 04:28:06;;;;;;;19.48;9.27;;;;;;;-2.18;62.63;101235.34;5111949;28;20023;-76
2022/03/02 04:30:32;;;;;;;18.75;9.77;;;;;;;-2.13;62.36;101246.63;5111783;28;20067;-76
2022/03/02 04:32:58;;;;;;;22.38;10.38;;;;;;;-2.12;62.73;101256.25;5111351;28;20027;-76
2022/03/02 04:35:24;;;;;;;21.50;10.13;;;;;;;-2.17;62.35;101250.25;5111690;28;20426;-76
2022/03/02 04:37:50;;;;;;;24.42;11.63;;;;;;;-2.22;62.39;101247.72;5111404;28;20030;-77
2022/03/02 04:40:16;;;;;;;20.02;9.65;;;;;;;-2.19;62.99;101259.91;5111190;28;20024;-77
2022/03/02 04:42:42;;;;;;;21.20;9.68;;;;;;;-2.22;62.73;101242.44;5110506;28;20027;-76
2022/03/02 04:45:08;;;;;;;22.02;9.23;;;;;;;-2.25;63.21;101237.25;5101988;28;20020;-76
2022/03/02 04:47:34;;;;;;;14.25;7.78;;;;;;;-2.22;63.09;101242.44;5097799;28;20039;-76
2022/03/02 04:49:59;;;;;;;17.55;8.93;;;;;;;-2.17;63.05;101250.25;5110141;28;20031;-76
2022/03/02 04:52:25;;;;;;;16.52;8.88;;;;;;;-2.17;63.16;101247.63;5101892;28;20586;-75
2022/03/02 04:55:05;;;;;;;18.23;8.52;;;;;;;-2.20;63.00;101239.78;5111044;28;20038;-75
2022/03/02 04:57:33;;;;;;;21.15;9.40;;;;;;;-2.16;63.20;101249.34;5100428;28;20479;-76
2022/03/02 04:59:58;;;;;;;24.98;10.43;;;;;;;-2.15;63.46;101240.53;5101591;28;20020;-76
2022/03/02 05:02:23;;;;;;;21.38;11.50;;;;;;;-2.19;63.46;101238.88;5110893;28;20454;-76
2022/03/02 05:04:52;;;;;;;24.33;9.27;;;;;;;-2.09;64.02;101237.78;5110907;28;20035;-76
2022/03/02 05:07:17;;;;;;;21.27;9.88;;;;;;;-2.09;63.73;101227.28;5110553;28;20025;-76
2022/03/02 05:09:46;;;;;;;21.35;10.05;;;;;;;-2.10;63.82;101221.16;5110987;28;20471;-75
2022/03/02 05:12:12;;;;;;;22.30;10.30;;;;;;;-2.06;63.77;101219.31;5108246;28;20038;-76
2022/03/02 05:14:37;;;;;;;19.15;9.93;;;;;;;-2.08;63.75;101219.34;5109607;28;20110;-76
2022/03/02 05:17:03;;;;;;;20.48;9.48;;;;;;;-2.02;63.85;101218.34;5110618;28;20023;-76
2022/03/02 05:19:28;;;;;;;21.20;10.05;;;;;;;-1.82;63.73;101248.56;5110584;28;20024;-76
2022/03/02 05:21:54;;;;;;;22.23;9.75;;;;;;;-1.82;63.49;101239.78;5110578;28;20047;-76
2022/03/02 05:24:20;;;;;;;21.65;9.55;;;;;;;-1.71;63.17;101240.44;5110482;28;20027;-76
2022/03/02 05:26:45;;;;;;;20.92;9.60;;;;;;;-1.68;62.83;101230.69;5104178;28;20019;-76
2022/03/02 05:29:11;;;;;;;17.88;8.45;;;;;;;-1.56;62.86;101245.28;5110600;28;20489;-75
2022/03/02 05:31:36;;;;;;;23.40;10.15;;;;;;;-1.56;62.36;101238.28;5100825;28;20083;-76
2022/03/02 05:34:02;;;;;;;21.83;9.15;;;;;;;-1.41;62.21;101244.94;5098357;28;20064;-76
2022/03/02 05:36:27;;;;;;;26.33;10.38;;;;;;;-1.38;62.15;101234.34;5109710;28;20051;-76
2022/03/02 05:38:53;;;;;;;23.35;10.40;;;;;;;-1.36;61.56;101214.97;5110165;28;20028;-75
2022/03/02 05:41:20;;;;;;;27.35;10.20;;;;;;;-1.16;61.38;101243.44;5110079;28;20031;-75
2022/03/02 05:43:45;;;;;;;20.95;9.35;;;;;;;-1.09;61.17;101243.25;5110122;28;20029;-76
2022/03/02 05:46:11;;;;;;;19.25;10.00;;;;;;;-1.06;61.14;101229.97;5103663;28;20111;-76
2022/03/02 05:48:37;;;;;;;27.10;10.43;;;;;;;-0.97;60.51;101223.63;5109882;28;20043;-77
2022/03/02 05:51:03;;;;;;;27.10;10.75;;;;;;;-0.91;60.28;101223.44;5106148;28;20023;-72
2022/03/02 05:53:29;;;;;;;24.95;10.13;;;;;;;-0.91;59.59;101213.78;5109600;28;20153;-72
2022/03/02 05:55:54;;;;;;;18.98;10.15;;;;;;;-0.78;59.49;101223.09;5108915;28;20111;-71
2022/03/02 05:58:20;;;;;;;23.67;10.10;;;;;;;-0.72;59.26;101216.78;5105130;28;20034;-72
2022/03/02 06:00:45;;;;;;;26.75;9.73;;;;;;;-0.58;58.43;101220.75;5109155;28;20124;-72
2022/03/02 06:03:11;;;;;;;22.02;9.90;;;;;;;-0.52;58.16;101217.06;5109434;28;20062;-71
2022/03/02 06:05:36;;;;;;;32.65;11.88;;;;;;;-0.48;58.02;101197.66;5109297;28;20026;-70
2022/03/02 06:08:02;;;;;;;22.17;9.95;;;;;;;-0.31;56.72;101201.53;5100202;28;20024;-70
2022/03/02 06:10:28;;;;;;;24.27;9.73;;;;;;;-0.12;55.88;101209.75;5108992;28;20030;-71
2022/03/02 06:12:53;;;;;;;23.63;9.68;;;;;;;-0.01;55.64;101210.28;5109017;28;20235;-72
2022/03/02 06:15:19;;;;;;;22.58;10.75;;;;;;;0.02;55.89;101212.81;5099546;28;20027;-72
2022/03/02 06:17:45;;;;;;;21.83;11.15;;;;;;;0.09;55.17;101206.44;5098091;28;20376;-73
2022/03/02 06:20:11;;;;;;;27.27;10.70;;;;;;;0.32;54.26;101211.84;5106624;28;20027;-75
2022/03/02 06:22:37;;;;;;;24.20;10.63;;;;;;;0.38;53.82;101190.56;5109276;28;20067;-72
2022/03/02 06:25:04;;;;;;;24.65;10.88;;;;;;;0.57;53.03;101196.06;5109615;28;20070;-72
2022/03/02 06:27:30;;;;;;;25.98;10.82;;;;;;;0.66;53.14;101207.22;5097790;28;20034;-70
2022/03/02 06:29:56;;;;;;;19.10;10.50;;;;;;;0.65;53.06;101200.22;5109496;28;20024;-72
2022/03/02 06:32:21;;;;;;;28.52;11.50;;;;;;;0.75;52.65;101208.69;5109262;28;20027;-71
2022/03/02 06:34:47;;;;;;;21.55;10.35;;;;;;;0.78;52.28;101203.31;5108824;28;20040;-71
2022/03/02 06:37:13;;;;;;;24.70;10.73;;;;;;;0.94;51.50;101215.94;5108762;28;20049;-73
2022/03/02 06:39:39;;;;;;;24.90;10.88;;;;;;;1.07;51.10;101213.72;5108671;28;20028;-72
2022/03/02 06:42:28;;;;;;;21.17;10.70;;;;;;;1.04;51.36;101212.06;5109016;28;20359;-73
2022/03/02 06:45:00;;;;;;;35.45;11.35;;;;;;;1.01;51.05;101193.69;5095167;28;20032;-72
2022/03/02 06:47:29;;;;;;;31.55;12.60;;;;;;;1.14;50.94;101205.53;5108783;28;20036;-72
2022/03/02 06:50:12;;;;;;;24.30;11.80;;;;;;;1.31;50.15;101208.44;5106642;28;20402;-73
2022/03/02 06:52:40;;;;;;;24.98;12.70;;;;;;;1.33;50.38;101214.53;5090806;28;20028;-72
2022/03/02 06:55:08;;;;;;;28.67;12.85;;;;;;;1.37;49.72;101192.38;5108767;28;20024;-69
2022/03/02 06:57:35;;;;;;;22.15;11.00;;;;;;;1.46;49.63;101199.09;5108807;28;20114;-69
2022/03/02 07:00:04;;;;;;;29.00;11.52;;;;;;;1.61;49.68;101199.38;5107052;28;20084;-72
2022/03/02 07:02:40;;;;;;;21.88;10.55;;;;;;;1.75;48.89;101204.16;5108457;28;20031;-69
2022/03/02 07:05:09;;;;;;;24.20;11.23;;;;;;;1.79;48.55;101185.47;5097415;28;20063;-72
2022/03/02 07:07:35;;;;;;;26.45;11.07;;;;;;;2.13;47.56;101196.44;5109436;28;20046;-72
2022/03/02 07:10:01;;;;;;;24.20;11.68;;;;;;;2.21;46.61;101193.50;5108539;28;20102;-72
2022/03/02 07:12:27;;;;;;;21.48;11.13;;;;;;;2.29;46.08;101202.84;5107256;28;20023;-72
2022/03/02 07:14:54;;;;;;;29.92;13.60;;;;;;;2.31;46.58;101200.16;5103872;28;20107;-72
2022/03/02 07:17:21;;;;;;;24.65;13.13;;;;;;;2.31;46.63;101201.03;5108256;28;20106;-71
2022/03/02 07:19:47;;;;;;;22.13;11.85;;;;;;;2.29;46.28;101183.50;5108040;28;20028;-71
2022/03/02 07:22:16;;;;;;;27.45;13.18;;;;;;;2.48;45.86;101187.09;5108156;28;20524;-71
2022/03/02 07:24:54;;;;;;;27.20;11.38;;;;;;;2.63;45.60;101191.75;5105692;28;20034;-71
2022/03/02 07:27:20;;;;;;;25.05;13.05;;;;;;;2.61;45.13;101183.00;5108031;28;20118;-71
2022/03/02 07:29:49;;;;;;;29.08;13.60;;;;;;;2.70;45.19;101177.34;5108292;28;20023;-71
2022/03/02 07:32:30;;;;;;;23.00;12.00;;;;;;;2.86;44.32;101177.53;5108179;28;20032;-71
2022/03/02 07:34:58;;;;;;;25.08;11.73;;;;;;;2.95;44.17;101183.31;5108082;28;20020;-71
2022/03/02 07:37:26;;;;;;;23.80;11.25;;;;;;;2.95;44.67;101188.63;5110189;28;20115;-71
2022/03/02 07:39:52;;;;;;;24.92;11.48;;;;;;;3.19;44.40;101189.34;5111613;28;20050;-71
2022/03/02 07:42:19;;;;;;;21.65;11.27;;;;;;;3.40;43.94;101185.75;5111609;28;20028;-71
2022/03/02 07:44:46;;;;;;;22.80;11.27;;;;;;;3.50;43.90;101171.13;5111473;28;20542;-71
2022/03/02 07:47:12;;;;;;;24.38;12.75;;;;;;;3.70;43.61;101174.59;5099523;28;20024;-71
2022/03/02 07:49:37;;;;;;;20.95;11.20;;;;;;;4.14;43.61;101177.81;5101922;28;20046;-72
2022/03/02 07:52:05;;;;;;;21.10;11.18;;;;;;;4.88;41.47;101167.00;5111596;28;20652;-71
2022/03/02 07:54:34;;;;;;;19.83;10.35;;;;;;;5.63;41.07;101170.09;5111391;28;20104;-72
2022/03/02 07:57:01;;;;;;;18.75;11.00;;;;;;;6.71;38.34;101185.25;5106982;28;20051;-71
2022/03/02 07:59:33;;;;;;;16.98;10.43;;;;;;;7.35;37.12;101159.09;5111027;28;20019;-72
2022/03/02 08:01:59;;;;;;;19.50;11.32;;;;;;;8.14;35.72;101162.97;5104435;28;20080;-70
2022/03/02 08:04:27;;;;;;;18.42;10.02;;;;;;;8.85;33.88;101161.81;5111017;28;20027;-71
2022/03/02 08:06:54;;;;;;;16.90;10.38;;;;;;;9.59;33.07;101159.31;5111390;28;20024;-72
2022/03/02 08:09:19;;;;;;;21.05;12.85;;;;;;;10.48;31.37;101159.88;5110985;28;20487;-70
2022/03/02 08:11:46;;;;;;;20.15;12.38;;;;;;;11.04;31.13;101150.25;5111051;28;20028;-70
2022/03/02 08:14:12;;;;;;;21.65;13.35;;;;;;;11.48;29.92;101143.13;5110971;28;20043;-70
2022/03/02 08:16:37;;;;;;;19.70;10.80;;;;;;;12.13;29.01;101139.75;5106856;28;20019;-69
2022/03/02 08:19:07;;;;;;;17.45;10.88;;;;;;;12.35;28.57;101137.84;5110721;28;20035;-70
2022/03/02 08:21:35;;;;;;;15.73;10.23;;;;;;;12.76;27.94;101137.97;5110746;28;20062;-70
2022/03/02 08:24:06;;;;;;;14.93;10.50;;;;;;;13.52;26.61;101129.63;5110918;28;20032;-71
2022/03/02 08:26:33;;;;;;;18.48;10.50;;;;;;;13.93;26.13;101123.28;5101789;28;20024;-70
2022/03/02 08:29:04;;;;;;;18.83;10.60;;;;;;;13.28;26.64;101118.25;5110529;28;20357;-70
2022/03/02 08:31:31;;;;;;;14.18;10.45;;;;;;;12.71;27.52;101133.97;5110523;27;20710;-71
2022/03/02 08:33:59;;;;;;;18.60;10.52;;;;;;;11.80;28.12;101129.03;5101072;28;20023;-70
2022/03/02 08:36:29;;;;;;;14.13;9.18;;;;;;;11.06;29.37;101126.84;5110438;28;20032;-71
2022/03/02 08:38:55;;;;;;;17.08;10.70;;;;;;;10.46;29.87;101120.75;5098459;28;20118;-71
2022/03/02 08:41:21;;;;;;;14.52;9.50;;;;;;;9.83;30.96;101123.59;5110600;28;20115;-70
2022/03/02 08:43:47;;;;;;;16.40;10.63;;;;;;;9.26;31.86;101119.69;5095678;28;20031;-70
2022/03/02 08:46:13;;;;;;;16.05;9.57;;;;;;;8.98;32.69;101127.91;5100773;28;20562;-71
2022/03/02 08:48:39;;;;;;;16.67;10.05;;;;;;;8.63;32.95;101126.75;5109361;28;20122;-70
2022/03/02 08:51:05;;;;;;;16.77;9.45;;;;;;;8.22;34.15;101134.00;5098747;28;20031;-71
2022/03/02 08:53:32;;;;;;;14.15;9.05;;;;;;;7.94;34.15;101129.53;5109914;28;20016;-70
2022/03/02 08:56:00;;;;;;;17.33;9.50;;;;;;;7.77;35.12;101119.06;5110015;28;20079;-70
2022/03/02 08:58:28;;;;;;;15.80;8.52;;;;;;;7.56;35.93;101112.41;5109757;28;20116;-70
2022/03/02 09:00:54;;;;;;;16.33;8.80;;;;;;;7.26;36.14;101100.13;5110102;28;20031;-70
2022/03/02 09:03:23;;;;;;;16.40;9.07;;;;;;;7.25;36.98;101117.09;5109944;28;20027;-70
2022/03/02 09:05:49;;;;;;;15.00;7.75;;;;;;;7.27;36.79;101108.03;5110045;28;20035;-71
2022/03/02 09:08:15;;;;;;;15.77;8.27;;;;;;;7.20;36.66;101104.03;5097608;28;20035;-70
2022/03/02 09:10:42;;;;;;;12.98;7.70;;;;;;;7.19;37.81;101107.63;5109787;28;20024;-71
2022/03/02 09:13:10;;;;;;;14.20;7.47;;;;;;;7.20;38.45;101093.38;5110094;27;20030;-70
2022/03/02 09:15:37;;;;;;;11.73;7.20;;;;;;;7.34;38.28;101093.38;5109774;28;20046;-71
2022/03/02 09:18:04;;;;;;;13.95;8.20;;;;;;;7.55;37.93;101085.81;5109547;28;20392;-71
2022/03/02 09:20:30;;;;;;;13.18;7.13;;;;;;;7.88;37.97;101081.88;5109597;28;20028;-71
2022/03/02 09:22:56;;;;;;;12.68;7.40;;;;;;;9.07;35.82;101090.66;5109639;27;20039;-70
2022/03/02 09:25:24;;;;;;;11.77;6.38;;;;;;;10.95;34.27;101071.28;5109712;28;20031;-71
2022/03/02 09:27:51;;;;;;;17.45;7.25;;;;;;;12.73;31.28;101059.31;5109675;28;20092;-71
2022/03/02 09:30:16;;;;;;;10.80;7.07;;;;;;;14.56;28.69;101056.25;5109800;28;20636;-71
2022/03/02 09:32:42;;;;;;;14.93;7.45;;;;;;;16.10;26.51;101043.97;5109697;28;20031;-71
2022/03/02 09:35:15;;;;;;;13.52;6.95;;;;;;;17.48;25.12;101046.72;5106976;28;20071;-71
2022/03/02 09:37:44;;;;;;;15.68;7.32;;;;;;;18.56;23.63;101031.34;5109252;28;20417;-71
2022/03/02 09:40:22;;;;;;;14.95;7.28;;;;;;;19.60;22.51;101022.19;5100189;28;20043;-71
2022/03/02 09:42:58;;;;;;;9.98;6.80;;;;;;;20.17;21.84;101021.81;5109124;28;20471;-71
2022/03/02 09:45:26;;;;;;;16.23;8.00;;;;;;;20.82;21.27;101014.00;5109105;28;20035;-72
2022/03/02 09:48:00;;;;;;;8.77;6.68;;;;;;;21.26;20.76;101008.66;5109387;28;20084;-71
2022/03/02 09:50:31;;;;;;;11.65;7.40;;;;;;;21.59;20.24;100999.06;5108856;27;20042;-71
2022/03/02 09:53:00;;;;;;;9.25;6.90;;;;;;;22.10;20.22;101000.81;5108858;28;20031;-71
2022/03/02 09:55:26;;;;;;;10.95;7.13;;;;;;;22.16;19.58;101002.78;5108969;28;20111;-72
2022/03/02 09:57:55;;;;;;;9.88;7.10;;;;;;;22.38;19.16;101007.25;5108828;28;20058;-72
2022/03/02 10:00:23;;;;;;;15.02;7.93;;;;;;;22.64;19.00;100993.00;5108559;28;20121;-71
2022/03/02 10:02:55;;;;;;;18.33;7.15;;;;;;;22.94;18.75;100986.34;5096598;28;20422;-72
2022/03/02 10:05:32;;;;;;;9.50;7.10;;;;;;;23.08;18.48;100994.44;5091376;28;20036;-71
2022/03/02 10:08:03;;;;;;;10.52;7.32;;;;;;;22.99;18.18;100978.38;5102079;28;20383;-72
2022/03/02 10:10:36;;;;;;;9.40;7.22;;;;;;;23.79;17.66;100974.03;5106279;28;20024;-71
2022/03/02 10:13:08;;;;;;;9.50;7.13;;;;;;;23.76;17.64;100980.78;5106431;28;20069;-71
2022/03/02 10:15:33;;;;;;;8.75;7.38;;;;;;;23.55;17.74;100980.91;5108710;28;20595;-71
2022/03/02 10:18:01;;;;;;;8.57;6.78;;;;;;;23.94;17.23;100970.16;5108528;28;20035;-72
2022/03/02 10:20:31;;;;;;;8.30;7.40;;;;;;;23.64;17.33;100963.22;5108358;28;20027;-71
2022/03/02 10:23:18;;;;;;;9.75;7.28;;;;;;;23.72;17.30;100956.75;5108411;28;20035;-71
2022/03/02 10:25:50;;;;;;;10.10;7.10;;;;;;;23.73;17.49;100942.84;5104716;28;20054;-71
2022/03/02 10:28:24;;;;;;;10.18;7.93;;;;;;;23.90;17.41;100955.13;5101268;28;20035;-71
2022/03/02 10:31:00;;;;;;;9.43;7.53;;;;;;;24.29;16.97;100938.84;5108665;28;20111;-71
2022/03/02 10:33:30;;;;;;;10.13;7.15;;;;;;;24.84;16.53;100940.38;5091114;28;20395;-71
2022/03/02 10:36:08;;;;;;;10.77;7.40;;;;;;;24.43;16.78;100934.19;5088482;28;20068;-71
2022/03/02 10:38:59;;;;;;;10.30;6.85;;;;;;;23.93;16.98;100930.03;5108390;28;20036;-71
2022/03/02 10:41:26;;;;;;;11.02;7.93;;;;;;;24.41;16.90;100922.63;5106259;28;20057;-71
2022/03/02 10:43:57;;;;;;;10.45;8.02;;;;;;;25.09;16.32;100908.47;5108401;28;20031;-71
2022/03/02 10:46:25;;;;;;;9.73;8.25;;;;;;;25.24;16.15;100898.06;5108415;28;20032;-71
2022/03/02 10:49:22;;;;;;;9.50;7.18;;;;;;;23.61;17.15;100910.75;5108335;28;20035;-72
2022/03/02 10:51:48;;;;;;;9.45;6.97;;;;;;;23.89;16.98;100906.03;5112026;28;20027;-79
2022/03/02 10:54:21;;;;;;;13.40;7.80;;;;;;;21.65;18.75;100914.53;5112780;28;20027;-79
2022/03/02 10:56:51;;;;;;;10.30;7.53;;;;;;;20.98;19.19;100918.41;5113401;28;20032;-79
2022/03/02 10:59:21;;;;;;;9.23;7.30;;;;;;;19.35;20.41;100912.59;5113477;28;20030;-79
2022/03/02 11:01:49;;;;;;;9.90;7.55;;;;;;;18.18;21.15;100919.75;5113538;28;20471;-79
2022/03/02 11:04:17;;;;;;;13.45;7.90;;;;;;;16.53;23.28;100924.94;5113330;28;20028;-78
2022/03/02 11:06:44;;;;;;;13.85;7.65;;;;;;;15.35;24.65;100925.25;5112677;28;20442;-78
2022/03/02 11:09:10;;;;;;;12.10;7.72;;;;;;;14.27;25.83;100928.56;5105592;28;20027;-78
2022/03/02 11:11:38;;;;;;;13.38;7.50;;;;;;;13.74;26.73;100922.69;5113616;28;20047;-78
2022/03/02 11:14:08;;;;;;;12.88;8.38;;;;;;;12.93;27.39;100921.16;5115912;28;20019;-78